createdAt,value
2022-11-26T00:02:30.067Z,4.33
2022-11-26T00:04:58.777Z,5.05
2022-11-26T00:07:28.565Z,4.60
2022-11-26T00:09:57.742Z,5.72
2022-11-26T00:12:27.680Z,6.72
2022-11-26T00:14:54.952Z,4.33
2022-11-26T00:17:21.651Z,3.88
2022-11-26T00:19:48.632Z,3.85
2022-11-26T00:22:23.061Z,4.38
2022-11-26T00:24:50.554Z,3.72
2022-11-26T00:27:17.741Z,4.40
2022-11-26T00:29:44.513Z,4.20
2022-11-26T00:32:23.020Z,3.65
2022-11-26T00:34:49.751Z,4.45
2022-11-26T00:37:27.893Z,3.70
2022-11-26T00:39:56.500Z,3.83
2022-11-26T00:42:23.691Z,5.55
2022-11-26T00:44:50.622Z,3.75
2022-11-26T00:47:17.373Z,3.78
2022-11-26T00:49:44.137Z,3.90
2022-11-26T00:52:36.957Z,3.73
2022-11-26T00:55:10.305Z,4.20
2022-11-26T00:57:37.025Z,3.75
2022-11-26T01:00:14.893Z,3.30
2022-11-26T01:02:41.928Z,4.05
2022-11-26T01:05:09.012Z,4.03
2022-11-26T01:07:36.106Z,3.78
2022-11-26T01:10:03.162Z,4.28
2022-11-26T01:12:29.881Z,3.10
2022-11-26T01:14:56.667Z,3.58
2022-11-26T01:17:23.387Z,4.37
2022-11-26T01:19:52.483Z,4.65
2022-11-26T01:22:22.175Z,3.30
2022-11-26T01:24:49.858Z,3.78
2022-11-26T01:27:18.916Z,5.05
2022-11-26T01:29:45.701Z,3.43
2022-11-26T01:32:12.650Z,3.53
2022-11-26T01:34:39.740Z,3.40
2022-11-26T01:37:14.287Z,3.80
2022-11-26T01:39:41.375Z,4.53
2022-11-26T01:42:22.737Z,5.90
2022-11-26T01:44:49.498Z,3.80
2022-11-26T01:47:34.464Z,4.22
2022-11-26T01:50:29.479Z,4.32
2022-11-26T01:53:03.816Z,2.95
2022-11-26T01:55:55.394Z,4.30
2022-11-26T01:58:28.455Z,3.88
2022-11-26T02:00:55.914Z,5.47
2022-11-26T02:03:23.943Z,3.90
2022-11-26T02:05:59.798Z,4.97
2022-11-26T02:08:30.042Z,4.80
2022-11-26T02:10:59.854Z,3.97
2022-11-26T02:13:27.523Z,3.22
2022-11-26T02:16:13.558Z,3.63
2022-11-26T02:18:47.074Z,4.00
2022-11-26T02:21:24.401Z,4.27
2022-11-26T02:23:53.971Z,4.88
2022-11-26T02:26:20.993Z,3.45
2022-11-26T02:29:17.436Z,4.20
2022-11-26T02:32:08.727Z,4.18
2022-11-26T02:34:51.620Z,4.00
2022-11-26T02:37:39.756Z,3.95
2022-11-26T02:40:08.433Z,3.63
2022-11-26T02:42:36.657Z,4.05
2022-11-26T02:45:13.174Z,3.83
2022-11-26T02:47:44.520Z,5.50
2022-11-26T02:50:38.350Z,4.03
2022-11-26T02:53:07.098Z,4.20
2022-11-26T02:55:37.668Z,3.88
2022-11-26T02:58:05.693Z,4.20
2022-11-26T03:00:36.909Z,4.53
2022-11-26T03:03:26.242Z,5.05
2022-11-26T03:05:57.706Z,4.25
2022-11-26T03:08:26.521Z,4.70
2022-11-26T03:10:53.416Z,4.32
2022-11-26T03:13:20.133Z,4.77
2022-11-26T03:15:47.209Z,4.18
2022-11-26T03:18:13.984Z,4.22
2022-11-26T03:20:40.773Z,4.97
2022-11-26T03:23:07.752Z,4.18
2022-11-26T03:25:34.996Z,3.63
2022-11-26T03:28:02.944Z,3.92
2022-11-26T03:30:29.780Z,3.50
2022-11-26T03:32:56.723Z,5.50
2022-11-26T03:35:23.488Z,5.57
2022-11-26T03:37:50.273Z,3.57
2022-11-26T03:40:17.741Z,3.42
2022-11-26T03:42:45.096Z,3.60
2022-11-26T03:45:12.852Z,4.32
2022-11-26T03:47:39.661Z,3.92
2022-11-26T03:50:07.633Z,3.47
2022-11-26T03:52:34.719Z,4.13
2022-11-26T03:55:01.413Z,3.47
2022-11-26T03:57:28.172Z,4.72
2022-11-26T03:59:55.035Z,3.97
2022-11-26T04:02:21.821Z,3.83
2022-11-26T04:04:48.596Z,3.50
2022-11-26T04:07:15.474Z,3.92
2022-11-26T04:09:42.226Z,4.78
2022-11-26T04:12:08.956Z,3.85
2022-11-26T04:14:35.713Z,4.13
2022-11-26T04:17:02.649Z,5.00
2022-11-26T04:19:30.454Z,6.22
2022-11-26T04:21:57.216Z,3.72
2022-11-26T04:24:24.067Z,5.05
2022-11-26T04:26:50.909Z,3.70
2022-11-26T04:29:17.597Z,3.85
2022-11-26T04:31:44.545Z,4.05
2022-11-26T04:34:11.342Z,4.35
2022-11-26T04:36:39.535Z,3.67
2022-11-26T04:39:06.480Z,3.70
2022-11-26T04:41:33.369Z,3.88
2022-11-26T04:44:00.109Z,2.97
2022-11-26T04:46:26.847Z,3.75
2022-11-26T04:48:53.590Z,3.10
2022-11-26T04:51:20.390Z,4.10
2022-11-26T04:53:47.081Z,3.90
2022-11-26T04:56:13.916Z,3.25
2022-11-26T04:58:40.605Z,4.22
2022-11-26T05:01:07.898Z,5.45
2022-11-26T05:03:36.661Z,3.60
2022-11-26T05:06:03.939Z,4.60
2022-11-26T05:08:30.699Z,3.85
2022-11-26T05:10:58.731Z,4.15
2022-11-26T05:13:25.524Z,3.10
2022-11-26T05:15:52.205Z,3.17
2022-11-26T05:18:19.012Z,3.25
2022-11-26T05:20:45.693Z,4.10
2022-11-26T05:23:12.507Z,3.03
2022-11-26T05:25:39.282Z,2.85
2022-11-26T05:28:06.189Z,3.00
2022-11-26T05:30:33.003Z,3.55
2022-11-26T05:33:02.557Z,3.28
2022-11-26T05:35:29.298Z,3.80
2022-11-26T05:37:56.204Z,3.75
2022-11-26T05:40:22.948Z,3.63
2022-11-26T05:42:49.704Z,2.70
2022-11-26T05:45:16.638Z,3.90
2022-11-26T05:47:43.494Z,3.38
2022-11-26T05:50:10.755Z,3.47
2022-11-26T05:52:37.507Z,2.83
2022-11-26T05:55:04.639Z,3.65
2022-11-26T05:57:31.418Z,3.95
2022-11-26T05:59:58.065Z,3.38
2022-11-26T06:02:24.828Z,3.47
2022-11-26T06:04:51.691Z,3.30
2022-11-26T06:07:18.601Z,3.38
2022-11-26T06:09:45.344Z,3.05
2022-11-26T06:12:12.072Z,3.22
2022-11-26T06:14:42.944Z,3.75
2022-11-26T06:17:10.544Z,4.37
2022-11-26T06:19:37.524Z,2.72
2022-11-26T06:22:04.359Z,3.65
2022-11-26T06:24:31.723Z,2.95
2022-11-26T06:26:58.520Z,3.20
2022-11-26T06:29:28.111Z,3.70
2022-11-26T06:31:55.583Z,3.65
2022-11-26T06:34:22.738Z,4.43
2022-11-26T06:36:49.489Z,3.28
2022-11-26T06:39:16.193Z,3.58
2022-11-26T06:41:42.995Z,3.30
2022-11-26T06:44:09.743Z,3.00
2022-11-26T06:46:38.051Z,3.80
2022-11-26T06:49:06.172Z,3.38
2022-11-26T06:51:33.432Z,2.83
2022-11-26T06:54:00.134Z,3.70
2022-11-26T06:56:26.890Z,3.15
2022-11-26T06:58:55.246Z,2.85
2022-11-26T07:01:24.786Z,3.08
2022-11-26T07:03:52.625Z,3.30
2022-11-26T07:06:27.715Z,3.37
2022-11-26T07:08:56.358Z,3.10
2022-11-26T07:11:24.267Z,3.10
2022-11-26T07:13:51.529Z,4.60
2022-11-26T07:16:18.569Z,3.13
2022-11-26T07:18:50.673Z,2.90
2022-11-26T07:21:19.161Z,4.15
2022-11-26T07:23:46.757Z,3.42
2022-11-26T07:26:15.107Z,3.05
2022-11-26T07:28:42.061Z,2.95
2022-11-26T07:31:16.403Z,3.50
2022-11-26T07:33:45.290Z,3.20
2022-11-26T07:36:20.404Z,3.72
2022-11-26T07:38:47.785Z,3.25
2022-11-26T07:41:19.312Z,2.58
2022-11-26T07:43:47.319Z,3.13
2022-11-26T07:46:17.972Z,2.90
2022-11-26T07:48:45.210Z,2.72
2022-11-26T07:51:22.530Z,3.30
2022-11-26T07:53:50.622Z,3.95
2022-11-26T07:56:18.049Z,2.87
2022-11-26T07:58:45.347Z,3.42
2022-11-26T08:01:21.405Z,2.75
2022-11-26T08:03:50.536Z,2.75
2022-11-26T08:06:19.708Z,3.47
2022-11-26T08:08:47.008Z,3.17
2022-11-26T08:11:33.842Z,2.53
2022-11-26T08:14:06.583Z,3.00
2022-11-26T08:16:34.223Z,2.95
2022-11-26T08:19:07.324Z,2.85
2022-11-26T08:21:35.029Z,3.57
2022-11-26T08:24:03.539Z,2.75
2022-11-26T08:26:35.015Z,3.63
2022-11-26T08:29:04.187Z,3.80
2022-11-26T08:31:31.202Z,3.38
2022-11-26T08:34:01.976Z,3.73
2022-11-26T08:36:30.083Z,3.00
2022-11-26T08:38:57.427Z,3.17
2022-11-26T08:41:24.299Z,3.25
2022-11-26T08:44:06.069Z,2.67
2022-11-26T08:46:33.783Z,3.10
2022-11-26T08:49:00.550Z,3.47
2022-11-26T08:51:27.392Z,6.35
2022-11-26T08:53:54.149Z,5.00
2022-11-26T08:56:21.084Z,4.38
2022-11-26T08:58:48.921Z,2.90
2022-11-26T09:01:17.385Z,3.70
2022-11-26T09:03:47.174Z,3.80
2022-11-26T09:06:13.984Z,3.00
2022-11-26T09:08:59.405Z,2.90
2022-11-26T09:11:27.483Z,2.83
2022-11-26T09:13:54.587Z,2.95
2022-11-26T09:16:22.487Z,3.55
2022-11-26T09:18:50.780Z,2.63
2022-11-26T09:21:18.037Z,3.35
2022-11-26T09:23:44.856Z,2.33
2022-11-26T09:26:11.693Z,2.75
2022-11-26T09:28:39.362Z,2.72
2022-11-26T09:31:06.591Z,2.97
2022-11-26T09:33:33.410Z,2.88
2022-11-26T09:36:12.618Z,3.03
2022-11-26T09:38:40.190Z,2.70
2022-11-26T09:41:37.739Z,3.90
2022-11-26T09:44:25.729Z,3.50
2022-11-26T09:47:19.840Z,3.58
2022-11-26T09:49:59.513Z,2.70
2022-11-26T09:52:30.530Z,2.97
2022-11-26T09:55:05.833Z,3.88
2022-11-26T09:57:41.773Z,2.85
2022-11-26T10:00:23.106Z,2.88
2022-11-26T10:02:52.713Z,4.47
2022-11-26T10:05:22.092Z,3.75
2022-11-26T10:07:54.812Z,4.18
2022-11-26T10:10:49.204Z,4.32
2022-11-26T10:13:24.928Z,3.30
2022-11-26T10:16:14.850Z,3.87
2022-11-26T10:19:14.336Z,4.53
2022-11-26T10:22:00.115Z,4.50
2022-11-26T10:24:35.089Z,2.72
2022-11-26T10:27:16.022Z,1.70
2022-11-26T10:29:46.516Z,1.70
2022-11-26T10:32:26.054Z,1.55
2022-11-26T10:34:58.184Z,1.75
2022-11-26T10:37:27.919Z,1.77
2022-11-26T10:40:17.966Z,3.10
2022-11-26T10:42:55.267Z,3.07
2022-11-26T10:45:25.238Z,1.90
2022-11-26T10:47:52.049Z,2.17
2022-11-26T10:53:21.590Z,2.05
2022-11-26T10:55:49.238Z,2.17
2022-11-26T10:58:30.324Z,1.42
2022-11-26T11:01:03.739Z,1.85
2022-11-26T11:06:28.336Z,1.77
2022-11-26T11:08:55.356Z,1.83
2022-11-26T11:11:30.805Z,1.23
2022-11-26T11:13:58.049Z,1.50
2022-11-26T11:16:39.413Z,2.20
2022-11-26T11:19:23.532Z,1.52
2022-11-26T11:21:50.850Z,1.47
2022-11-26T11:24:22.577Z,2.90
2022-11-26T11:26:53.512Z,1.50
2022-11-26T11:29:29.340Z,1.50
2022-11-26T11:31:57.882Z,2.38
2022-11-26T11:34:41.123Z,1.87
2022-11-26T11:37:15.320Z,2.10
2022-11-26T11:39:42.996Z,3.25
2022-11-26T11:42:29.307Z,2.08
2022-11-26T11:44:58.165Z,2.35
2022-11-26T11:47:37.618Z,2.43
2022-11-26T11:50:29.245Z,3.08
2022-11-26T11:53:02.132Z,1.92
2022-11-26T11:55:50.533Z,2.20
2022-11-26T11:58:26.361Z,3.08
2022-11-26T12:00:59.115Z,2.33
2022-11-26T12:03:35.183Z,2.60
2022-11-26T12:06:32.423Z,3.05
2022-11-26T12:09:07.284Z,2.60
2022-11-26T12:11:56.741Z,3.60
2022-11-26T12:14:32.543Z,3.33
2022-11-26T12:17:13.993Z,2.80
2022-11-26T12:20:02.312Z,2.45
2022-11-26T12:22:44.515Z,4.30
2022-11-26T12:25:24.692Z,2.42
2022-11-26T12:28:01.333Z,2.03
2022-11-26T12:30:37.288Z,2.42
2022-11-26T12:33:11.623Z,2.50
2022-11-26T12:35:50.852Z,2.00
2022-11-26T12:38:25.148Z,2.08
2022-11-26T12:41:20.053Z,2.83
2022-11-26T12:44:04.520Z,2.53
2022-11-26T12:46:57.779Z,3.28
2022-11-26T12:49:39.094Z,2.45
2022-11-26T12:52:23.744Z,2.05
2022-11-26T12:55:11.838Z,2.40
2022-11-26T12:58:01.331Z,2.17
2022-11-26T13:00:36.410Z,2.00
2022-11-26T13:03:05.426Z,3.28
2022-11-26T13:05:32.092Z,2.30
2022-11-26T13:08:29.271Z,2.30
2022-11-26T13:11:11.248Z,3.03
2022-11-26T13:14:12.091Z,3.40
2022-11-26T13:16:56.210Z,2.38
2022-11-26T13:19:31.504Z,4.20
2022-11-26T13:22:07.550Z,3.63
2022-11-26T13:24:37.516Z,3.17
2022-11-26T13:27:37.973Z,3.03
2022-11-26T13:30:14.467Z,2.17
2022-11-26T13:32:47.202Z,2.25
2022-11-26T13:35:20.145Z,2.03
2022-11-26T13:38:44.217Z,1.50
2022-11-26T13:41:29.291Z,2.10
2022-11-26T13:44:31.131Z,1.70
2022-11-26T13:47:04.055Z,2.05
2022-11-26T13:49:41.385Z,2.00
2022-11-26T13:52:21.223Z,1.70
2022-11-26T13:54:58.621Z,1.70
2022-11-26T13:57:34.442Z,1.50
2022-11-26T14:00:01.993Z,1.42
2022-11-26T14:02:34.244Z,1.80
2022-11-26T14:05:03.007Z,1.60
2022-11-26T14:07:29.898Z,1.42
2022-11-26T14:10:00.705Z,1.35
2022-11-26T14:13:04.734Z,1.35
2022-11-26T14:15:40.641Z,1.50
2022-11-26T14:18:16.301Z,1.50
2022-11-26T14:20:59.611Z,1.40
2022-11-26T14:23:42.117Z,1.70
2022-11-26T14:26:34.210Z,1.60
2022-11-26T14:29:13.470Z,1.70
2022-11-26T14:31:54.939Z,1.95
2022-11-26T14:34:31.181Z,1.60
2022-11-26T14:37:00.633Z,2.60
2022-11-26T14:39:28.882Z,2.92
2022-11-26T14:42:04.092Z,3.43
2022-11-26T14:44:33.191Z,5.60
2022-11-26T14:47:07.983Z,3.58
2022-11-26T14:49:41.465Z,3.58
2022-11-26T14:52:23.355Z,3.42
2022-11-26T14:54:56.250Z,3.03
2022-11-26T14:57:27.866Z,2.15
2022-11-26T15:00:04.857Z,3.05
2022-11-26T15:02:32.126Z,1.95
2022-11-26T15:05:12.817Z,2.30
2022-11-26T15:07:39.732Z,1.30
2022-11-26T15:10:17.892Z,1.23
2022-11-26T15:12:47.042Z,1.67
2022-11-26T15:15:20.621Z,1.40
2022-11-26T15:17:53.382Z,1.58
2022-11-26T15:20:20.764Z,1.40
2022-11-26T15:22:53.869Z,2.33
2022-11-26T15:25:25.118Z,1.73
2022-11-26T15:27:54.976Z,2.65
2022-11-26T15:30:37.241Z,2.47
2022-11-26T15:33:13.091Z,1.97
2022-11-26T15:35:40.390Z,2.78
2022-11-26T15:38:15.545Z,3.20
2022-11-26T15:40:50.373Z,1.90
2022-11-26T15:43:42.951Z,2.67
2022-11-26T15:46:23.845Z,2.00
2022-11-26T15:48:53.608Z,3.03
2022-11-26T15:51:36.952Z,4.80
2022-11-26T15:54:20.913Z,4.93
2022-11-26T15:56:55.100Z,6.30
2022-11-26T15:59:25.742Z,8.07
2022-11-26T16:01:53.533Z,4.45
2022-11-26T16:04:46.580Z,4.47
2022-11-26T16:07:21.672Z,2.83
2022-11-26T16:09:49.741Z,2.28
2022-11-26T16:12:30.006Z,2.97
2022-11-26T16:15:30.173Z,2.70
2022-11-26T16:17:57.045Z,2.90
2022-11-26T16:20:29.128Z,3.67
2022-11-26T16:23:00.611Z,4.25
2022-11-26T16:25:33.252Z,3.70
2022-11-26T16:28:12.851Z,2.17
2022-11-26T16:30:42.842Z,2.22
2022-11-26T16:33:09.987Z,1.92
2022-11-26T16:35:45.764Z,1.73
2022-11-26T16:38:21.349Z,1.60
2022-11-26T16:40:48.653Z,2.78
2022-11-26T16:43:15.495Z,2.10
2022-11-26T16:45:42.476Z,2.65
2022-11-26T16:48:21.153Z,3.25
2022-11-26T16:50:48.073Z,3.10
2022-11-26T16:53:14.917Z,2.08
2022-11-26T16:55:41.862Z,2.03
2022-11-26T16:58:21.142Z,2.28
2022-11-26T17:00:48.234Z,4.10
2022-11-26T17:03:14.999Z,7.00
2022-11-26T17:05:42.354Z,3.42
2022-11-26T17:08:12.061Z,3.50
2022-11-26T17:10:38.916Z,3.08
2022-11-26T17:13:05.625Z,3.75
2022-11-26T17:15:32.516Z,3.43
2022-11-26T17:18:18.938Z,11.35
2022-11-26T17:20:45.948Z,6.38
2022-11-26T17:23:13.097Z,3.33
2022-11-26T17:25:40.297Z,3.15
2022-11-26T17:28:14.207Z,2.80
2022-11-26T17:30:42.644Z,2.92
2022-11-26T17:33:10.202Z,2.97
2022-11-26T17:35:37.578Z,4.88
2022-11-26T17:38:10.494Z,3.60
2022-11-26T17:40:37.262Z,3.77
2022-11-26T17:43:03.957Z,6.30
2022-11-26T17:45:30.889Z,4.40
2022-11-26T17:47:57.713Z,3.95
2022-11-26T17:50:27.645Z,2.55
2022-11-26T17:52:54.861Z,3.57
2022-11-26T17:55:23.464Z,3.30
2022-11-26T17:57:50.729Z,3.83
2022-11-26T18:00:21.534Z,5.65
2022-11-26T18:02:48.668Z,5.18
2022-11-26T18:05:15.809Z,6.50
2022-11-26T18:07:42.757Z,5.57
2022-11-26T18:10:20.087Z,4.45
2022-11-26T18:12:46.876Z,2.78
2022-11-26T18:15:23.110Z,1.92
2022-11-26T18:17:52.282Z,2.93
2022-11-26T18:20:21.503Z,3.45
2022-11-26T18:22:56.124Z,3.40
2022-11-26T18:25:23.070Z,2.17
2022-11-26T18:27:50.124Z,2.70
2022-11-26T18:30:17.660Z,1.50
2022-11-26T18:32:44.745Z,2.42
2022-11-26T18:35:12.165Z,2.92
2022-11-26T18:37:40.503Z,2.70
2022-11-26T18:40:10.536Z,2.42
2022-11-26T18:42:38.378Z,2.23
2022-11-26T18:45:10.394Z,2.60
2022-11-26T18:47:38.287Z,3.63
2022-11-26T18:50:06.047Z,2.90
2022-11-26T18:52:32.768Z,7.07
2022-11-26T18:55:00.045Z,2.93
2022-11-26T18:57:27.428Z,3.53
2022-11-26T18:59:54.299Z,3.55
2022-11-26T19:02:21.179Z,3.25
2022-11-26T19:04:47.963Z,2.85
2022-11-26T19:07:15.710Z,3.93
2022-11-26T19:09:42.904Z,3.95
2022-11-26T19:12:12.678Z,2.63
2022-11-26T19:14:39.587Z,3.97
2022-11-26T19:17:06.531Z,3.20
2022-11-26T19:19:33.433Z,2.70
2022-11-26T19:22:01.645Z,5.50
2022-11-26T19:24:30.057Z,6.88
2022-11-26T19:26:57.253Z,6.00
2022-11-26T19:29:24.146Z,7.47
2022-11-26T19:31:50.934Z,6.17
2022-11-26T19:34:17.665Z,4.18
2022-11-26T19:36:48.802Z,4.32
2022-11-26T19:39:16.115Z,3.78
2022-11-26T19:41:42.845Z,3.88
2022-11-26T19:44:09.595Z,4.30
2022-11-26T19:46:40.952Z,3.55
2022-11-26T19:49:11.777Z,3.15
2022-11-26T19:51:38.784Z,6.57
2022-11-26T19:54:10.874Z,3.78
2022-11-26T19:56:48.596Z,11.33
2022-11-26T19:59:16.852Z,4.00
2022-11-26T20:01:43.692Z,5.43
2022-11-26T20:04:13.425Z,12.00
2022-11-26T20:06:44.155Z,5.72
2022-11-26T20:09:12.847Z,5.43
2022-11-26T20:11:41.071Z,7.85
2022-11-26T20:14:11.416Z,14.35
2022-11-26T20:16:40.952Z,4.82
2022-11-26T20:19:08.570Z,4.25
2022-11-26T20:21:36.381Z,6.57
2022-11-26T20:24:07.013Z,11.88
2022-11-26T20:26:36.730Z,17.35
2022-11-26T20:29:06.157Z,14.40
2022-11-26T20:31:33.546Z,3.95
2022-11-26T20:34:04.322Z,7.53
2022-11-26T20:36:31.512Z,15.40
2022-11-26T20:39:00.850Z,7.55
2022-11-26T20:41:28.568Z,7.03
2022-11-26T20:43:58.917Z,4.25
2022-11-26T20:46:27.209Z,5.63
2022-11-26T20:48:54.334Z,7.03
2022-11-26T20:51:22.351Z,9.20
2022-11-26T20:53:50.912Z,6.55
2022-11-26T20:56:22.263Z,7.60
2022-11-26T20:58:50.967Z,7.57
2022-11-26T21:01:20.278Z,5.47
2022-11-26T21:03:47.502Z,8.70
2022-11-26T21:06:15.720Z,9.98
2022-11-26T21:08:43.032Z,10.10
2022-11-26T21:11:10.809Z,9.07
2022-11-26T21:13:39.225Z,10.15
2022-11-26T21:16:10.783Z,10.95
2022-11-26T21:18:38.021Z,6.93
2022-11-26T21:21:12.908Z,6.40
2022-11-26T21:23:40.825Z,6.17
2022-11-26T21:26:15.191Z,5.93
2022-11-26T21:28:41.918Z,7.00
2022-11-26T21:31:14.900Z,6.35
2022-11-26T21:33:41.682Z,9.00
2022-11-26T21:36:12.080Z,5.07
2022-11-26T21:38:38.904Z,4.95
2022-11-26T21:41:12.674Z,4.53
2022-11-26T21:43:40.740Z,5.07
2022-11-26T21:46:10.884Z,4.60
2022-11-26T21:48:37.691Z,6.13
2022-11-26T21:51:12.082Z,4.10
2022-11-26T21:53:38.980Z,4.18
2022-11-26T21:56:14.301Z,5.40
2022-11-26T21:58:41.645Z,4.88
2022-11-26T22:01:13.964Z,5.13
2022-11-26T22:03:42.628Z,5.28
2022-11-26T22:06:10.199Z,7.60
2022-11-26T22:08:38.374Z,4.63
2022-11-26T22:11:13.139Z,5.10
2022-11-26T22:13:41.089Z,5.20
2022-11-26T22:16:09.232Z,4.47
2022-11-26T22:18:39.956Z,4.22
2022-11-26T22:21:08.131Z,5.03
2022-11-26T22:23:35.226Z,3.40
2022-11-26T22:26:02.212Z,3.77
2022-11-26T22:28:30.316Z,2.67
2022-11-26T22:30:58.069Z,3.08
2022-11-26T22:33:24.984Z,2.65
2022-11-26T22:35:51.678Z,2.15
2022-11-26T22:38:18.418Z,2.17
2022-11-26T22:40:45.046Z,2.08
2022-11-26T22:43:11.742Z,1.95
2022-11-26T22:45:38.988Z,2.08
2022-11-26T22:48:06.188Z,2.80
2022-11-26T22:50:32.963Z,2.73
2022-11-26T22:52:59.702Z,2.05
2022-11-26T22:55:26.349Z,1.98
2022-11-26T22:57:53.643Z,1.95
2022-11-26T23:00:45.296Z,1.58
2022-11-26T23:03:12.468Z,2.27
2022-11-26T23:05:39.731Z,2.25
2022-11-26T23:08:06.534Z,1.90
2022-11-26T23:10:33.309Z,1.60
2022-11-26T23:13:00.021Z,1.85
2022-11-26T23:15:26.846Z,4.43
2022-11-26T23:17:53.495Z,1.55
2022-11-26T23:20:20.277Z,1.60
2022-11-26T23:22:46.983Z,1.60
2022-11-26T23:25:13.697Z,3.65
2022-11-26T23:27:40.408Z,1.40
2022-11-26T23:30:07.688Z,1.60
2022-11-26T23:32:34.417Z,1.98
2022-11-26T23:35:02.171Z,1.40
2022-11-26T23:37:28.795Z,1.50
2022-11-26T23:39:55.504Z,2.40
2022-11-26T23:42:22.394Z,1.38
2022-11-26T23:44:49.062Z,1.45
2022-11-26T23:47:15.837Z,1.20
2022-11-26T23:49:42.618Z,4.88
2022-11-26T23:52:09.368Z,1.20
2022-11-26T23:54:35.988Z,1.27
2022-11-26T23:57:02.685Z,2.45
2022-11-26T23:59:29.391Z,1.25
